createdAt,value
2019-03-31T00:00:24.811Z,1014.75
2019-03-31T00:01:24.818Z,1014.75
2019-03-31T00:02:24.791Z,1014.77
2019-03-31T00:03:24.790Z,1014.77
2019-03-31T00:04:24.773Z,1014.73
2019-03-31T00:05:24.779Z,1014.77
2019-03-31T00:06:24.757Z,1014.76
2019-03-31T00:07:24.734Z,1014.77
2019-03-31T00:08:24.727Z,1014.72
2019-03-31T00:09:24.714Z,1014.75
2019-03-31T00:10:24.745Z,1014.80
2019-03-31T00:11:24.693Z,1014.80
2019-03-31T00:12:24.686Z,1014.79
2019-03-31T00:13:24.674Z,1014.81
2019-03-31T00:14:24.663Z,1014.79
2019-03-31T00:15:24.669Z,1014.79
2019-03-31T00:16:24.701Z,1014.75
2019-03-31T00:17:24.630Z,1014.75
2019-03-31T00:18:24.629Z,1014.77
2019-03-31T00:19:24.619Z,1014.81
2019-03-31T00:20:24.616Z,1014.78
2019-03-31T00:21:24.584Z,1014.77
2019-03-31T00:22:24.614Z,1014.76
2019-03-31T00:23:24.563Z,1014.77
2019-03-31T00:24:24.561Z,1014.80
2019-03-31T00:25:24.561Z,1014.80
2019-03-31T00:26:24.538Z,1014.83
2019-03-31T00:27:24.521Z,1014.82
2019-03-31T00:28:24.514Z,1014.76
2019-03-31T00:29:24.501Z,1014.72
2019-03-31T00:30:24.527Z,1014.71
2019-03-31T00:31:24.493Z,1014.77
2019-03-31T00:32:24.466Z,1014.75
2019-03-31T00:33:24.456Z,1014.73
2019-03-31T00:34:24.452Z,1014.77
2019-03-31T00:35:24.436Z,1014.79
2019-03-31T00:36:24.445Z,1014.79
2019-03-31T00:37:24.421Z,1014.79
2019-03-31T00:38:24.400Z,1014.82
2019-03-31T00:39:24.397Z,1014.83
2019-03-31T00:40:24.408Z,1014.81
2019-03-31T00:41:24.400Z,1014.79
2019-03-31T00:42:24.361Z,1014.80
2019-03-31T00:43:24.354Z,1014.87
2019-03-31T00:44:24.338Z,1014.87
2019-03-31T00:45:24.329Z,1014.86
2019-03-31T00:46:24.344Z,1014.79
2019-03-31T00:47:24.311Z,1014.83
2019-03-31T00:48:24.298Z,1014.83
2019-03-31T00:49:24.292Z,1014.84
2019-03-31T00:50:24.299Z,1014.84
2019-03-31T00:51:24.313Z,1014.77
2019-03-31T00:52:24.257Z,1014.81
2019-03-31T00:53:24.294Z,1014.83
2019-03-31T00:54:27.575Z,1014.77
2019-03-31T00:55:24.222Z,1014.80
2019-03-31T00:56:24.221Z,1014.74
2019-03-31T00:57:24.233Z,1014.73
2019-03-31T00:58:24.190Z,1014.73
2019-03-31T00:59:24.200Z,1014.77
2019-03-31T01:00:24.180Z,1014.72
2019-03-31T01:01:35.732Z,1014.73
2019-03-31T01:02:25.167Z,1014.75
2019-03-31T01:03:24.134Z,1014.72
2019-03-31T01:04:24.131Z,1014.73
2019-03-31T01:05:24.115Z,1014.71
2019-03-31T01:06:24.115Z,1014.76
2019-03-31T01:07:24.112Z,1014.72
2019-03-31T01:08:24.083Z,1014.75
2019-03-31T01:09:24.072Z,1014.77
2019-03-31T01:10:24.063Z,1014.82
2019-03-31T01:11:24.049Z,1014.81
2019-03-31T01:12:24.111Z,1014.77
2019-03-31T01:13:24.028Z,1014.75
2019-03-31T01:14:24.024Z,1014.76
2019-03-31T01:15:24.034Z,1014.75
2019-03-31T01:16:23.995Z,1014.75
2019-03-31T01:17:24.005Z,1014.73
2019-03-31T01:18:31.521Z,1014.75
2019-03-31T01:19:31.499Z,1014.76
2019-03-31T01:20:32.514Z,1014.72
2019-03-31T01:21:23.943Z,1014.72
2019-03-31T01:22:32.948Z,1014.73
2019-03-31T01:23:31.509Z,1014.73
2019-03-31T01:24:23.968Z,1014.73
2019-03-31T01:25:31.445Z,1014.73
2019-03-31T01:26:31.414Z,1014.71
2019-03-31T01:27:32.588Z,1014.69
2019-03-31T01:28:31.444Z,1014.70
2019-03-31T01:29:23.863Z,1014.73
2019-03-31T01:30:23.842Z,1014.71
2019-03-31T01:31:23.832Z,1014.70
2019-03-31T01:32:23.839Z,1014.70
2019-03-31T01:33:23.809Z,1014.68
2019-03-31T01:34:23.802Z,1014.67
2019-03-31T01:35:23.810Z,1014.69
2019-03-31T01:36:23.778Z,1014.67
2019-03-31T01:37:23.830Z,1014.68
2019-03-31T01:38:23.774Z,1014.70
2019-03-31T01:39:23.841Z,1014.69
2019-03-31T01:40:23.771Z,1014.68
2019-03-31T01:41:23.724Z,1014.69
2019-03-31T01:42:23.765Z,1014.68
2019-03-31T01:43:23.704Z,1014.70
2019-03-31T01:44:23.692Z,1014.71
2019-03-31T01:45:23.699Z,1014.69
2019-03-31T01:46:23.715Z,1014.68
2019-03-31T01:47:23.690Z,1014.67
2019-03-31T01:48:23.650Z,1014.71
2019-03-31T01:49:23.661Z,1014.74
2019-03-31T01:50:23.630Z,1014.74
2019-03-31T01:51:23.616Z,1014.75
2019-03-31T01:52:23.641Z,1014.72
2019-03-31T01:53:23.592Z,1014.72
2019-03-31T01:54:33.411Z,1014.75
2019-03-31T01:55:31.125Z,1014.76
2019-03-31T01:56:31.107Z,1014.76
2019-03-31T01:57:33.291Z,1014.76
2019-03-31T01:58:23.540Z,1014.75
2019-03-31T01:59:23.526Z,1014.79
2019-03-31T02:00:23.552Z,1014.77
2019-03-31T02:01:23.508Z,1014.74
2019-03-31T02:02:23.519Z,1014.76
2019-03-31T02:03:23.493Z,1014.74
2019-03-31T02:04:23.473Z,1014.75
2019-03-31T02:05:23.472Z,1014.69
2019-03-31T02:06:23.456Z,1014.74
2019-03-31T02:07:23.456Z,1014.71
2019-03-31T02:08:23.461Z,1014.72
2019-03-31T02:09:23.428Z,1014.71
2019-03-31T02:10:23.407Z,1014.71
2019-03-31T02:11:23.416Z,1014.71
2019-03-31T02:12:23.395Z,1014.73
2019-03-31T02:13:23.394Z,1014.74
2019-03-31T02:14:23.367Z,1014.70
2019-03-31T02:15:23.355Z,1014.72
2019-03-31T02:16:23.352Z,1014.74
2019-03-31T02:17:23.334Z,1014.74
2019-03-31T02:18:23.340Z,1014.71
2019-03-31T02:19:23.332Z,1014.75
2019-03-31T02:20:23.302Z,1014.72
2019-03-31T02:21:23.292Z,1014.71
2019-03-31T02:22:23.277Z,1014.68
2019-03-31T02:23:23.301Z,1014.73
2019-03-31T02:24:23.257Z,1014.65
2019-03-31T02:25:23.276Z,1014.70
2019-03-31T02:26:23.235Z,1014.70
2019-03-31T02:27:23.253Z,1014.73
2019-03-31T02:28:23.301Z,1014.73
2019-03-31T02:29:23.214Z,1014.75
2019-03-31T02:30:23.218Z,1014.80
2019-03-31T02:31:23.188Z,1014.76
2019-03-31T02:32:24.866Z,1014.80
2019-03-31T02:33:23.220Z,1014.82
2019-03-31T02:34:23.151Z,1014.84
2019-03-31T02:35:23.162Z,1014.88
2019-03-31T02:36:23.130Z,1014.85
2019-03-31T02:37:23.144Z,1014.85
2019-03-31T02:38:23.110Z,1014.82
2019-03-31T02:39:23.211Z,1014.86
2019-03-31T02:40:23.085Z,1014.86
2019-03-31T02:41:23.077Z,1014.81
2019-03-31T02:42:23.100Z,1014.82
2019-03-31T02:43:23.061Z,1014.82
2019-03-31T02:44:23.051Z,1014.85
2019-03-31T02:45:23.078Z,1014.82
2019-03-31T02:46:23.028Z,1014.83
2019-03-31T02:47:23.043Z,1014.86
2019-03-31T02:48:23.000Z,1014.90
2019-03-31T02:49:22.998Z,1014.86
2019-03-31T02:50:23.001Z,1014.87
2019-03-31T02:51:22.965Z,1014.87
2019-03-31T02:52:22.961Z,1014.87
2019-03-31T02:53:22.944Z,1014.86
2019-03-31T02:54:22.937Z,1014.87
2019-03-31T02:55:22.989Z,1014.87
2019-03-31T02:56:22.909Z,1014.82
2019-03-31T02:57:22.897Z,1014.78
2019-03-31T02:58:22.890Z,1014.80
2019-03-31T02:59:22.884Z,1014.77
2019-03-31T03:00:22.891Z,1014.75
2019-03-31T03:01:22.893Z,1014.71
2019-03-31T03:02:40.238Z,1014.73
2019-03-31T03:03:23.947Z,1014.72
2019-03-31T03:04:22.825Z,1014.71
2019-03-31T03:05:22.818Z,1014.73
2019-03-31T03:06:22.853Z,1014.72
2019-03-31T03:07:22.812Z,1014.71
2019-03-31T03:08:30.329Z,1014.77
2019-03-31T03:09:30.333Z,1014.75
2019-03-31T03:10:22.764Z,1014.77
2019-03-31T03:11:22.776Z,1014.75
2019-03-31T03:12:22.739Z,1014.81
2019-03-31T03:13:22.767Z,1014.78
2019-03-31T03:14:22.716Z,1014.81
2019-03-31T03:15:22.709Z,1014.77
2019-03-31T03:16:22.731Z,1014.76
2019-03-31T03:17:22.684Z,1014.76
2019-03-31T03:18:22.674Z,1014.71
2019-03-31T03:19:22.667Z,1014.73
2019-03-31T03:20:22.657Z,1014.69
2019-03-31T03:21:31.385Z,1014.72
2019-03-31T03:22:22.647Z,1014.65
2019-03-31T03:23:22.623Z,1014.67
2019-03-31T03:24:22.626Z,1014.71
2019-03-31T03:25:22.599Z,1014.74
2019-03-31T03:26:22.586Z,1014.74
2019-03-31T03:27:22.612Z,1014.74
2019-03-31T03:28:22.582Z,1014.75
2019-03-31T03:29:22.559Z,1014.78
2019-03-31T03:30:22.703Z,1014.81
2019-03-31T03:31:22.632Z,1014.76
2019-03-31T03:32:22.593Z,1014.81
2019-03-31T03:33:22.528Z,1014.79
2019-03-31T03:34:22.513Z,1014.78
2019-03-31T03:35:22.514Z,1014.78
2019-03-31T03:36:22.504Z,1014.80
2019-03-31T03:37:22.469Z,1014.76
2019-03-31T03:38:22.546Z,1014.79
2019-03-31T03:39:22.448Z,1014.82
2019-03-31T03:40:22.447Z,1014.86
2019-03-31T03:41:22.436Z,1014.88
2019-03-31T03:42:22.455Z,1014.86
2019-03-31T03:43:22.435Z,1014.89
2019-03-31T03:44:22.391Z,1014.88
2019-03-31T03:45:22.408Z,1014.90
2019-03-31T03:46:22.378Z,1014.87
2019-03-31T03:47:22.380Z,1014.92
2019-03-31T03:48:22.371Z,1014.89
2019-03-31T03:49:22.352Z,1014.90
2019-03-31T03:50:22.328Z,1014.92
2019-03-31T03:51:22.343Z,1014.91
2019-03-31T03:52:22.353Z,1014.97
2019-03-31T03:53:22.335Z,1014.99
2019-03-31T03:54:22.291Z,1014.97
2019-03-31T03:55:22.291Z,1014.95
2019-03-31T03:56:22.266Z,1014.95
2019-03-31T03:57:22.271Z,1014.89
2019-03-31T03:58:22.258Z,1014.95
2019-03-31T03:59:22.248Z,1014.94
2019-03-31T04:00:22.226Z,1014.86
2019-03-31T04:01:22.245Z,1014.90
2019-03-31T04:02:22.222Z,1014.91
2019-03-31T04:03:30.487Z,1014.91
2019-03-31T04:04:23.184Z,1014.93
2019-03-31T04:05:22.168Z,1014.94
2019-03-31T04:06:22.163Z,1014.92
2019-03-31T04:07:22.163Z,1014.94
2019-03-31T04:08:22.136Z,1014.90
2019-03-31T04:09:22.137Z,1014.95
2019-03-31T04:10:22.126Z,1014.97
2019-03-31T04:11:22.261Z,1014.91
2019-03-31T04:12:22.134Z,1015.00
2019-03-31T04:13:22.300Z,1014.99
2019-03-31T04:14:22.077Z,1015.00
2019-03-31T04:15:22.077Z,1014.95
2019-03-31T04:16:22.058Z,1015.01
2019-03-31T04:17:22.090Z,1015.03
2019-03-31T04:18:22.032Z,1015.06
2019-03-31T04:19:22.018Z,1015.09
2019-03-31T04:20:22.013Z,1015.08
2019-03-31T04:21:22.016Z,1015.06
2019-03-31T04:22:22.012Z,1015.08
2019-03-31T04:23:21.982Z,1015.06
2019-03-31T04:24:21.991Z,1015.08
2019-03-31T04:25:21.954Z,1015.08
2019-03-31T04:26:21.944Z,1015.05
2019-03-31T04:27:21.980Z,1015.14
2019-03-31T04:28:21.932Z,1015.09
2019-03-31T04:29:21.917Z,1015.18
2019-03-31T04:30:21.900Z,1015.20
2019-03-31T04:31:21.887Z,1015.14
2019-03-31T04:32:21.900Z,1015.12
2019-03-31T04:33:21.881Z,1015.11
2019-03-31T04:34:21.858Z,1015.14
2019-03-31T04:35:21.857Z,1015.13
2019-03-31T04:36:21.836Z,1015.16
2019-03-31T04:37:21.839Z,1015.16
2019-03-31T04:38:21.815Z,1015.11
2019-03-31T04:39:21.814Z,1015.15
2019-03-31T04:40:21.797Z,1015.14
2019-03-31T04:41:21.781Z,1015.15
2019-03-31T04:42:21.809Z,1015.14
2019-03-31T04:43:21.757Z,1015.18
2019-03-31T04:44:21.746Z,1015.16
2019-03-31T04:45:21.741Z,1015.15
2019-03-31T04:46:21.739Z,1015.19
2019-03-31T04:47:21.738Z,1015.20
2019-03-31T04:48:21.705Z,1015.22
2019-03-31T04:49:21.702Z,1015.20
2019-03-31T04:50:21.687Z,1015.19
2019-03-31T04:51:21.746Z,1015.22
2019-03-31T04:52:21.676Z,1015.25
2019-03-31T04:53:21.652Z,1015.25
2019-03-31T04:54:21.639Z,1015.31
2019-03-31T04:55:21.689Z,1015.30
2019-03-31T04:56:21.625Z,1015.24
2019-03-31T04:57:21.629Z,1015.32
2019-03-31T04:58:21.629Z,1015.28
2019-03-31T04:59:21.593Z,1015.31
2019-03-31T05:00:21.604Z,1015.29
2019-03-31T05:01:21.591Z,1015.28
2019-03-31T05:02:21.712Z,1015.33
2019-03-31T05:03:21.579Z,1015.32
2019-03-31T05:04:21.588Z,1015.32
2019-03-31T05:05:21.522Z,1015.37
2019-03-31T05:06:21.510Z,1015.32
2019-03-31T05:07:21.525Z,1015.43
2019-03-31T05:08:21.514Z,1015.38
2019-03-31T05:09:21.540Z,1015.38
2019-03-31T05:10:21.474Z,1015.41
2019-03-31T05:11:21.458Z,1015.38
2019-03-31T05:12:21.473Z,1015.38
2019-03-31T05:13:21.442Z,1015.42
2019-03-31T05:14:21.447Z,1015.48
2019-03-31T05:15:21.418Z,1015.48
2019-03-31T05:16:21.546Z,1015.52
2019-03-31T05:17:21.414Z,1015.56
2019-03-31T05:18:21.384Z,1015.54
2019-03-31T05:19:21.373Z,1015.56
2019-03-31T05:20:21.361Z,1015.56
2019-03-31T05:21:21.350Z,1015.53
2019-03-31T05:22:21.358Z,1015.54
2019-03-31T05:23:21.396Z,1015.51
2019-03-31T05:24:21.318Z,1015.57
2019-03-31T05:25:21.413Z,1015.58
2019-03-31T05:26:21.303Z,1015.59
2019-03-31T05:27:29.918Z,1015.64
2019-03-31T05:28:29.850Z,1015.65
2019-03-31T05:29:30.102Z,1015.72
2019-03-31T05:30:29.823Z,1015.74
2019-03-31T05:31:28.810Z,1015.78
2019-03-31T05:32:21.249Z,1015.79
2019-03-31T05:33:21.217Z,1015.80
2019-03-31T05:34:21.214Z,1015.79
2019-03-31T05:35:21.200Z,1015.81
2019-03-31T05:36:21.192Z,1015.80
2019-03-31T05:37:21.228Z,1015.77
2019-03-31T05:38:21.166Z,1015.80
2019-03-31T05:39:21.155Z,1015.83
2019-03-31T05:40:21.154Z,1015.83
2019-03-31T05:41:21.137Z,1015.80
2019-03-31T05:42:21.224Z,1015.81
2019-03-31T05:43:21.150Z,1015.78
2019-03-31T05:44:21.110Z,1015.79
2019-03-31T05:45:21.093Z,1015.80
2019-03-31T05:46:21.139Z,1015.80
2019-03-31T05:47:21.112Z,1015.86
2019-03-31T05:48:21.069Z,1015.84
2019-03-31T05:49:21.091Z,1015.89
2019-03-31T05:50:21.069Z,1015.85
2019-03-31T05:51:21.042Z,1015.86
2019-03-31T05:52:21.098Z,1015.80
2019-03-31T05:53:21.013Z,1015.84
2019-03-31T05:54:20.993Z,1015.85
2019-03-31T05:55:20.991Z,1015.85
2019-03-31T05:56:20.970Z,1015.86
2019-03-31T05:57:20.963Z,1015.85
2019-03-31T05:58:20.975Z,1015.84
2019-03-31T05:59:20.939Z,1015.86
2019-03-31T06:00:20.929Z,1015.89
2019-03-31T06:01:20.928Z,1015.86
2019-03-31T06:02:20.907Z,1015.83
2019-03-31T06:03:20.936Z,1015.85
2019-03-31T06:04:32.582Z,1015.84
2019-03-31T06:05:21.888Z,1015.85
2019-03-31T06:06:20.904Z,1015.82
2019-03-31T06:07:20.851Z,1015.78
2019-03-31T06:08:20.887Z,1015.82
2019-03-31T06:09:20.845Z,1015.81
2019-03-31T06:10:20.822Z,1015.82
2019-03-31T06:11:20.818Z,1015.81
2019-03-31T06:12:20.805Z,1015.82
2019-03-31T06:13:20.819Z,1015.84
2019-03-31T06:14:20.780Z,1015.86
2019-03-31T06:15:20.786Z,1015.86
2019-03-31T06:16:20.762Z,1015.88
2019-03-31T06:17:20.768Z,1015.86
2019-03-31T06:18:20.752Z,1015.85
2019-03-31T06:19:20.749Z,1015.88
2019-03-31T06:20:20.719Z,1015.85
2019-03-31T06:21:20.723Z,1015.89
2019-03-31T06:22:20.697Z,1015.85
2019-03-31T06:23:20.702Z,1015.83
2019-03-31T06:24:20.733Z,1015.85
2019-03-31T06:25:20.680Z,1015.86
2019-03-31T06:26:20.651Z,1015.81
2019-03-31T06:27:20.650Z,1015.80
2019-03-31T06:28:20.668Z,1015.79
2019-03-31T06:29:20.643Z,1015.80
2019-03-31T06:30:20.735Z,1015.82
2019-03-31T06:31:20.594Z,1015.83
2019-03-31T06:32:20.585Z,1015.84
2019-03-31T06:33:20.572Z,1015.81
2019-03-31T06:34:20.566Z,1015.84
2019-03-31T06:35:20.608Z,1015.84
2019-03-31T06:36:20.609Z,1015.84
2019-03-31T06:37:20.531Z,1015.82
2019-03-31T06:38:20.530Z,1015.86
2019-03-31T06:39:20.576Z,1015.89
2019-03-31T06:40:20.552Z,1015.87
2019-03-31T06:41:20.496Z,1015.92
2019-03-31T06:42:20.473Z,1015.91
2019-03-31T06:43:20.509Z,1015.91
2019-03-31T06:44:20.467Z,1015.96
2019-03-31T06:45:20.464Z,1015.91
2019-03-31T06:46:20.437Z,1015.93
2019-03-31T06:47:20.428Z,1015.95
2019-03-31T06:48:20.409Z,1015.93
2019-03-31T06:49:20.408Z,1015.89
2019-03-31T06:50:30.115Z,1015.92
2019-03-31T06:51:20.375Z,1015.90
2019-03-31T06:52:20.368Z,1015.95
2019-03-31T06:53:20.361Z,1015.98
2019-03-31T06:54:20.345Z,1016.00
2019-03-31T06:55:20.356Z,1016.00
2019-03-31T06:56:20.327Z,1015.98
2019-03-31T06:57:20.322Z,1015.99
2019-03-31T06:58:20.305Z,1015.98
2019-03-31T06:59:20.312Z,1016.01
2019-03-31T07:00:20.316Z,1016.03
2019-03-31T07:01:20.268Z,1015.95
2019-03-31T07:02:20.317Z,1016.01
2019-03-31T07:03:20.309Z,1016.03
2019-03-31T07:04:20.242Z,1016.03
2019-03-31T07:05:20.299Z,1016.03
2019-03-31T07:06:20.257Z,1016.07
2019-03-31T07:07:23.588Z,1016.06
2019-03-31T07:08:20.198Z,1016.17
2019-03-31T07:09:20.184Z,1016.16
2019-03-31T07:10:20.173Z,1016.19
2019-03-31T07:11:20.183Z,1016.22
2019-03-31T07:12:20.165Z,1016.24
2019-03-31T07:13:20.147Z,1016.21
2019-03-31T07:14:20.127Z,1016.22
2019-03-31T07:15:20.117Z,1016.21
2019-03-31T07:16:20.110Z,1016.20
2019-03-31T07:17:20.115Z,1016.21
2019-03-31T07:18:20.126Z,1016.19
2019-03-31T07:19:20.087Z,1016.17
2019-03-31T07:20:20.088Z,1016.19
2019-03-31T07:21:20.050Z,1016.20
2019-03-31T07:22:20.061Z,1016.16
2019-03-31T07:23:20.075Z,1016.19
2019-03-31T07:24:20.024Z,1016.16
2019-03-31T07:25:20.064Z,1016.13
2019-03-31T07:26:20.029Z,1016.14
2019-03-31T07:27:19.990Z,1016.18
2019-03-31T07:28:20.006Z,1016.15
2019-03-31T07:29:19.990Z,1016.14
2019-03-31T07:30:19.965Z,1016.15
2019-03-31T07:31:19.981Z,1016.15
2019-03-31T07:32:19.943Z,1016.14
2019-03-31T07:33:19.938Z,1016.15
2019-03-31T07:34:19.910Z,1016.13
2019-03-31T07:35:19.914Z,1016.18
2019-03-31T07:36:19.904Z,1016.08
2019-03-31T07:37:19.941Z,1016.10
2019-03-31T07:38:19.961Z,1016.10
2019-03-31T07:39:20.188Z,1016.08
2019-03-31T07:40:20.129Z,1016.12
2019-03-31T07:41:20.201Z,1016.07
2019-03-31T07:42:19.860Z,1016.15
2019-03-31T07:43:19.998Z,1016.13
2019-03-31T07:44:19.807Z,1016.13
2019-03-31T07:45:19.799Z,1016.16
2019-03-31T07:46:19.821Z,1016.21
2019-03-31T07:47:19.773Z,1016.20
2019-03-31T07:48:19.817Z,1016.18
2019-03-31T07:49:19.752Z,1016.19
2019-03-31T07:50:19.739Z,1016.21
2019-03-31T07:51:27.288Z,1016.25
2019-03-31T07:52:28.279Z,1016.25
2019-03-31T07:53:19.727Z,1016.24
2019-03-31T07:54:19.700Z,1016.26
2019-03-31T07:55:19.683Z,1016.28
2019-03-31T07:56:19.676Z,1016.34
2019-03-31T07:57:19.663Z,1016.36
2019-03-31T07:58:19.730Z,1016.38
2019-03-31T07:59:19.651Z,1016.43
2019-03-31T08:00:19.636Z,1016.43
2019-03-31T08:01:19.619Z,1016.43
2019-03-31T08:02:19.616Z,1016.45
2019-03-31T08:03:19.627Z,1016.42
2019-03-31T08:04:19.591Z,1016.45
2019-03-31T08:05:32.371Z,1016.46
2019-03-31T08:06:20.563Z,1016.48
2019-03-31T08:07:19.552Z,1016.50
2019-03-31T08:08:19.613Z,1016.46
2019-03-31T08:09:19.540Z,1016.43
2019-03-31T08:10:19.528Z,1016.45
2019-03-31T08:11:19.511Z,1016.47
2019-03-31T08:12:19.500Z,1016.48
2019-03-31T08:13:19.598Z,1016.48
2019-03-31T08:14:19.481Z,1016.45
2019-03-31T08:15:19.538Z,1016.54
2019-03-31T08:16:19.461Z,1016.52
2019-03-31T08:17:19.455Z,1016.55
2019-03-31T08:18:19.482Z,1016.57
2019-03-31T08:19:20.883Z,1016.55
2019-03-31T08:20:19.417Z,1016.55
2019-03-31T08:21:19.399Z,1016.52
2019-03-31T08:22:19.394Z,1016.54
2019-03-31T08:23:19.404Z,1016.54
2019-03-31T08:24:19.367Z,1016.54
2019-03-31T08:25:19.372Z,1016.61
2019-03-31T08:26:19.378Z,1016.59
2019-03-31T08:27:19.347Z,1016.57
2019-03-31T08:28:19.411Z,1016.61
2019-03-31T08:29:19.334Z,1016.65
2019-03-31T08:30:19.303Z,1016.68
2019-03-31T08:31:19.292Z,1016.72
2019-03-31T08:32:19.298Z,1016.70
2019-03-31T08:33:19.334Z,1016.75
2019-03-31T08:34:19.352Z,1016.72
2019-03-31T08:35:19.248Z,1016.64
2019-03-31T08:36:19.242Z,1016.67
2019-03-31T08:37:19.236Z,1016.72
2019-03-31T08:38:19.243Z,1016.68
2019-03-31T08:39:19.208Z,1016.64
2019-03-31T08:40:19.197Z,1016.69
2019-03-31T08:41:19.182Z,1016.64
2019-03-31T08:42:19.172Z,1016.70
2019-03-31T08:43:19.235Z,1016.69
2019-03-31T08:44:19.198Z,1016.66
2019-03-31T08:45:19.145Z,1016.65
2019-03-31T08:46:19.137Z,1016.67
2019-03-31T08:47:19.216Z,1016.63
2019-03-31T08:48:19.124Z,1016.62
2019-03-31T08:49:19.106Z,1016.63
2019-03-31T08:50:19.090Z,1016.68
2019-03-31T08:51:19.090Z,1016.65
2019-03-31T08:52:19.067Z,1016.67
2019-03-31T08:53:19.081Z,1016.63
2019-03-31T08:54:19.043Z,1016.66
2019-03-31T08:55:19.063Z,1016.69
2019-03-31T08:56:19.021Z,1016.65
2019-03-31T08:57:19.011Z,1016.69
2019-03-31T08:58:19.022Z,1016.63
2019-03-31T08:59:19.016Z,1016.64
2019-03-31T09:00:18.978Z,1016.63
2019-03-31T09:01:18.968Z,1016.67
2019-03-31T09:02:18.964Z,1016.66
2019-03-31T09:03:19.070Z,1016.64
2019-03-31T09:04:18.980Z,1016.68
2019-03-31T09:05:18.927Z,1016.67
2019-03-31T09:06:18.979Z,1016.64
2019-03-31T09:07:18.913Z,1016.68
2019-03-31T09:08:18.906Z,1016.63
2019-03-31T09:09:18.913Z,1016.67
2019-03-31T09:10:18.876Z,1016.66
2019-03-31T09:11:18.862Z,1016.67
2019-03-31T09:12:18.865Z,1016.67
2019-03-31T09:13:18.881Z,1016.69
2019-03-31T09:14:18.826Z,1016.73
2019-03-31T09:15:26.412Z,1016.71
2019-03-31T09:16:18.802Z,1016.72
2019-03-31T09:17:18.790Z,1016.70
2019-03-31T09:18:18.785Z,1016.71
2019-03-31T09:19:18.785Z,1016.69
2019-03-31T09:20:18.770Z,1016.67
2019-03-31T09:21:18.774Z,1016.69
2019-03-31T09:22:18.737Z,1016.69
2019-03-31T09:23:18.731Z,1016.69
2019-03-31T09:24:18.737Z,1016.72
2019-03-31T09:25:18.706Z,1016.74
2019-03-31T09:26:18.726Z,1016.67
2019-03-31T09:27:18.716Z,1016.74
2019-03-31T09:28:18.675Z,1016.76
2019-03-31T09:29:18.732Z,1016.79
2019-03-31T09:30:18.708Z,1016.74
2019-03-31T09:31:18.640Z,1016.76
2019-03-31T09:32:18.648Z,1016.78
2019-03-31T09:33:18.635Z,1016.78
2019-03-31T09:34:18.629Z,1016.79
2019-03-31T09:35:18.599Z,1016.76
2019-03-31T09:36:18.587Z,1016.81
2019-03-31T09:37:18.576Z,1016.83
2019-03-31T09:38:18.596Z,1016.82
2019-03-31T09:39:18.595Z,1016.84
2019-03-31T09:40:18.554Z,1016.79
2019-03-31T09:41:18.537Z,1016.85
2019-03-31T09:42:18.520Z,1016.88
2019-03-31T09:43:18.521Z,1016.93
2019-03-31T09:44:18.523Z,1016.97
2019-03-31T09:45:18.495Z,1016.90
2019-03-31T09:46:18.525Z,1016.93
2019-03-31T09:47:18.466Z,1016.84
2019-03-31T09:48:18.458Z,1016.84
2019-03-31T09:49:18.487Z,1016.94
2019-03-31T09:50:18.450Z,1016.86
2019-03-31T09:51:18.424Z,1016.91
2019-03-31T09:52:18.430Z,1016.91
2019-03-31T09:53:18.402Z,1016.85
2019-03-31T09:54:18.419Z,1016.89
2019-03-31T09:55:18.399Z,1016.85
2019-03-31T09:56:25.935Z,1016.80
2019-03-31T09:57:26.951Z,1016.81
2019-03-31T09:58:25.907Z,1016.90
2019-03-31T09:59:18.355Z,1016.91
2019-03-31T10:00:25.875Z,1016.84
2019-03-31T10:01:26.877Z,1016.93
2019-03-31T10:02:18.305Z,1016.83
2019-03-31T10:03:18.295Z,1016.80
2019-03-31T10:04:18.335Z,1016.83
2019-03-31T10:05:18.273Z,1016.88
2019-03-31T10:06:29.693Z,1016.92
2019-03-31T10:07:19.255Z,1016.86
2019-03-31T10:08:21.815Z,1016.92
2019-03-31T10:09:18.253Z,1016.89
2019-03-31T10:10:18.275Z,1016.90
2019-03-31T10:11:18.216Z,1017.00
2019-03-31T10:12:18.279Z,1017.00
2019-03-31T10:13:18.194Z,1016.90
2019-03-31T10:14:18.210Z,1016.91
2019-03-31T10:15:18.183Z,1016.91
2019-03-31T10:16:18.267Z,1017.08
2019-03-31T10:17:18.148Z,1016.94
2019-03-31T10:18:18.473Z,1016.94
2019-03-31T10:19:18.181Z,1016.94
2019-03-31T10:20:18.145Z,1016.95
2019-03-31T10:21:18.112Z,1016.96
2019-03-31T10:22:18.094Z,1016.92
2019-03-31T10:23:18.116Z,1017.02
2019-03-31T10:24:18.101Z,1017.06
2019-03-31T10:25:18.061Z,1017.06
2019-03-31T10:26:31.113Z,1017.02
2019-03-31T10:27:19.046Z,1016.97
2019-03-31T10:28:18.027Z,1016.99
2019-03-31T10:29:18.059Z,1017.06
2019-03-31T10:30:18.011Z,1017.07
2019-03-31T10:31:18.003Z,1017.02
2019-03-31T10:32:18.021Z,1017.00
2019-03-31T10:33:18.006Z,1017.03
2019-03-31T10:34:18.041Z,1017.03
2019-03-31T10:35:17.994Z,1017.02
2019-03-31T10:36:17.985Z,1017.01
2019-03-31T10:37:18.043Z,1016.98
2019-03-31T10:38:17.925Z,1017.03
2019-03-31T10:39:17.930Z,1017.00
2019-03-31T10:40:17.900Z,1017.06
2019-03-31T10:41:17.949Z,1017.03
2019-03-31T10:42:17.878Z,1017.08
2019-03-31T10:43:17.866Z,1017.07
2019-03-31T10:44:17.882Z,1017.10
2019-03-31T10:45:17.866Z,1017.08
2019-03-31T10:46:17.836Z,1017.11
2019-03-31T10:47:17.837Z,1017.10
2019-03-31T10:48:20.960Z,1017.09
2019-03-31T10:49:17.824Z,1017.13
2019-03-31T10:50:17.788Z,1017.13
2019-03-31T10:51:17.782Z,1017.12
2019-03-31T10:52:17.789Z,1017.13
2019-03-31T10:53:17.763Z,1017.12
2019-03-31T10:54:17.767Z,1017.09
2019-03-31T10:55:17.797Z,1017.16
2019-03-31T10:56:17.726Z,1017.27
2019-03-31T10:57:17.722Z,1017.20
2019-03-31T10:58:17.710Z,1017.17
2019-03-31T10:59:17.745Z,1017.18
2019-03-31T11:00:17.692Z,1017.21
2019-03-31T11:01:17.674Z,1017.18
2019-03-31T11:02:17.663Z,1017.24
2019-03-31T11:03:17.660Z,1017.23
2019-03-31T11:04:17.668Z,1017.23
2019-03-31T11:05:17.637Z,1017.20
2019-03-31T11:06:17.678Z,1017.15
2019-03-31T11:07:17.615Z,1017.20
2019-03-31T11:08:17.609Z,1017.25
2019-03-31T11:09:17.611Z,1017.30
2019-03-31T11:10:17.758Z,1017.26
2019-03-31T11:11:17.570Z,1017.18
2019-03-31T11:12:17.557Z,1017.21
2019-03-31T11:13:17.556Z,1017.23
2019-03-31T11:14:17.558Z,1017.23
2019-03-31T11:15:17.606Z,1017.25
2019-03-31T11:16:17.559Z,1017.22
2019-03-31T11:17:17.508Z,1017.21
2019-03-31T11:18:17.506Z,1017.20
2019-03-31T11:19:17.538Z,1017.22
2019-03-31T11:20:17.482Z,1017.25
2019-03-31T11:21:17.467Z,1017.25
2019-03-31T11:22:17.452Z,1017.24
2019-03-31T11:23:17.452Z,1017.29
2019-03-31T11:24:17.448Z,1017.30
2019-03-31T11:25:22.074Z,1017.24
2019-03-31T11:26:18.431Z,1017.26
2019-03-31T11:27:17.413Z,1017.26
2019-03-31T11:28:17.387Z,1017.24
2019-03-31T11:29:17.403Z,1017.28
2019-03-31T11:30:17.387Z,1017.26
2019-03-31T11:31:18.057Z,1017.31
2019-03-31T11:32:17.352Z,1017.26
2019-03-31T11:33:17.354Z,1017.28
2019-03-31T11:34:19.651Z,1017.30
2019-03-31T11:35:17.317Z,1017.30
2019-03-31T11:36:17.303Z,1017.32
2019-03-31T11:37:17.325Z,1017.31
2019-03-31T11:38:17.287Z,1017.32
2019-03-31T11:39:17.291Z,1017.36
2019-03-31T11:40:17.290Z,1017.41
2019-03-31T11:41:17.274Z,1017.31
2019-03-31T11:42:17.263Z,1017.35
2019-03-31T11:43:25.777Z,1017.35
2019-03-31T11:44:17.228Z,1017.33
2019-03-31T11:45:17.238Z,1017.29
2019-03-31T11:46:17.224Z,1017.35
2019-03-31T11:47:17.177Z,1017.33
2019-03-31T11:48:17.180Z,1017.33
2019-03-31T11:49:17.216Z,1017.36
2019-03-31T11:50:17.156Z,1017.39
2019-03-31T11:51:17.136Z,1017.42
2019-03-31T11:52:17.130Z,1017.38
2019-03-31T11:53:17.120Z,1017.49
2019-03-31T11:54:17.159Z,1017.41
2019-03-31T11:55:17.112Z,1017.41
2019-03-31T11:56:17.095Z,1017.42
2019-03-31T11:57:17.663Z,1017.40
2019-03-31T11:58:17.077Z,1017.50
2019-03-31T11:59:17.061Z,1017.50
2019-03-31T12:00:17.063Z,1017.51
2019-03-31T12:01:17.102Z,1017.57
2019-03-31T12:02:27.134Z,1017.53
2019-03-31T12:03:18.005Z,1017.51
2019-03-31T12:04:16.993Z,1017.46
2019-03-31T12:05:17.020Z,1017.48